Time;durP1;ratioP1;P1;durP2;ratioP2;P2;SDS_P1;SDS_P2;PMS_P1;PMS_P2;Temp;Humidity;BMP_temperature;BMP_pressure;BME280_temperature;BME280_humidity;BME280_pressure;Samples;Min_cycle;Max_cycle;Signal;HPM_P1;HPM_P2
2023/01/28 00:02:08;;;;;;;;;;;;;;;5.49;70.67;101047.88;5113165;28;4647;-77
2023/01/28 00:04:34;;;;;;;;;;;;;;;5.38;70.91;101049.94;5093706;28;4690;-77
2023/01/28 00:07:01;;;;;;;;;;;;;;;5.37;70.94;101050.91;5093611;28;4835;-77
2023/01/28 00:09:28;;;;;;;;;;;;;;;5.39;71.00;101046.25;5106066;28;4826;-77
2023/01/28 00:11:54;;;;;;;;;;;;;;;5.36;71.06;101035.91;5090505;28;4388;-77
2023/01/28 00:14:21;;;;;;;;;;;;;;;5.38;71.01;101031.25;5087352;28;4576;-77
2023/01/28 00:16:47;;;;;;;;;;;;;;;5.47;70.89;101018.66;5103811;28;4458;-77
2023/01/28 00:19:14;;;;;;;;;;;;;;;5.37;71.09;101008.19;5102644;28;4885;-77
2023/01/28 00:21:41;;;;;;;;;;;;;;;5.36;71.07;101016.38;5086934;28;4611;-77
2023/01/28 00:24:08;;;;;;;;;;;;;;;5.41;70.93;101012.19;5106562;28;4426;-77
2023/01/28 00:26:35;;;;;;;;;;;;;;;5.36;71.26;101025.22;5104164;28;4456;-77
2023/01/28 00:29:01;;;;;;;;;;;;;;;5.32;71.35;101026.56;5106636;28;4356;-77
2023/01/28 00:31:28;;;;;;;;;;;;;;;5.39;71.07;101019.53;5088613;28;4755;-77
2023/01/28 00:33:54;;;;;;;;;;;;;;;5.34;71.22;101013.88;5104915;28;4806;-77
2023/01/28 00:36:21;;;;;;;;;;;;;;;4.91;70.92;100935.13;5109898;28;4613;-77
2023/01/28 00:38:47;;;;;;;;;;;;;;;5.43;70.80;101004.81;5114233;28;4593;-77
2023/01/28 00:41:14;;;;;;;;;;;;;;;5.39;70.84;101000.00;5110628;27;4823;-77
2023/01/28 00:43:40;;;;;;;;;;;;;;;5.30;71.33;101006.41;5112249;28;4880;-77
2023/01/28 00:46:07;;;;;;;;;;;;;;;5.35;71.26;101004.00;5108260;28;4543;-76
2023/01/28 00:48:33;;;;;;;;;;;;;;;5.32;71.28;100993.69;5085397;28;4376;-77
2023/01/28 00:51:00;;;;;;;;;;;;;;;4.91;71.19;100909.28;5089401;28;4302;-77
2023/01/28 00:53:26;;;;;;;;;;;;;;;5.34;71.14;100973.81;5089058;28;4671;-77
2023/01/28 00:55:53;;;;;;;;;;;;;;;5.43;70.78;100971.94;5104498;28;5098;-77
2023/01/28 00:58:20;;;;;;;;;;;;;;;5.32;71.19;100973.13;5086598;28;4625;-77
2023/01/28 01:00:46;;;;;;;;;;;;;;;5.33;71.08;100976.66;5086591;28;4879;-77
2023/01/28 01:03:13;;;;;;;;;;;;;;;5.34;71.11;100973.81;5084182;28;5141;-77
2023/01/28 01:05:39;;;;;;;;;;;;;;;5.31;71.16;100979.50;5082925;28;4732;-77
2023/01/28 01:08:06;;;;;;;;;;;;;;;5.34;71.20;100967.63;5080142;28;4330;-77
2023/01/28 01:10:33;;;;;;;;;;;;;;;5.32;71.22;100972.31;5063093;28;4720;-77
2023/01/28 01:12:59;;;;;;;;;;;;;;;5.36;71.22;100968.31;5069465;27;4174;-77
2023/01/28 01:15:26;;;;;;;;;;;;;;;5.40;70.91;100969.59;5089341;27;4189;-77
2023/01/28 01:17:53;;;;;;;;;;;;;;;5.38;71.09;100952.91;5086443;27;4217;-77
2023/01/28 01:20:19;;;;;;;;;;;;;;;5.35;71.00;100940.72;5076450;27;4838;-77
2023/01/28 01:22:46;;;;;;;;;;;;;;;5.36;71.00;100939.75;5095720;27;5115;-77
2023/01/28 01:25:12;;;;;;;;;;;;;;;5.38;70.94;100943.09;5087426;27;4458;-77
2023/01/28 01:27:39;;;;;;;;;;;;;;;5.40;70.91;100948.25;5089600;27;4360;-77
2023/01/28 01:30:06;;;;;;;;;;;;;;;5.36;71.09;100958.44;5086747;27;4980;-77
2023/01/28 01:32:33;;;;;;;;;;;;;;;5.30;71.20;100956.47;5081663;27;4433;-77
2023/01/28 01:35:00;;;;;;;;;;;;;;;4.97;70.85;100871.22;5084062;27;4317;-77
2023/01/28 01:37:27;;;;;;;;;;;;;;;5.45;70.61;100945.88;5086858;27;4722;-77
2023/01/28 01:39:53;;;;;;;;;;;;;;;5.52;70.42;100946.81;5102828;27;4552;-77
2023/01/28 01:42:20;;;;;;;;;;;;;;;5.42;70.73;100919.50;5093421;27;4484;-77
2023/01/28 01:44:47;;;;;;;;;;;;;;;5.39;70.73;100931.38;5082618;27;4059;-77
2023/01/28 01:47:13;;;;;;;;;;;;;;;5.38;70.79;100940.41;5089464;27;4969;-77
2023/01/28 01:49:40;;;;;;;;;;;;;;;5.30;71.03;100943.13;5082816;27;4540;-77
2023/01/28 01:52:06;;;;;;;;;;;;;;;5.45;70.53;100922.66;5092400;27;4815;-77
2023/01/28 01:54:33;;;;;;;;;;;;;;;5.38;70.89;100913.69;5101611;27;4164;-77
2023/01/28 01:56:59;;;;;;;;;;;;;;;5.34;70.89;100908.88;5086972;27;4287;-77
2023/01/28 01:59:26;;;;;;;;;;;;;;;5.50;70.63;100902.59;5086191;27;4752;-77
2023/01/28 02:01:52;;;;;;;;;;;;;;;5.42;70.85;100896.31;5083914;27;4279;-77
2023/01/28 02:04:19;;;;;;;;;;;;;;;5.38;70.60;100883.47;5081354;27;4364;-77
2023/01/28 02:06:45;;;;;;;;;;;;;;;5.38;70.98;100889.66;5077940;27;4383;-77
2023/01/28 02:09:12;;;;;;;;;;;;;;;5.42;70.89;100885.63;5084035;27;4216;-77
2023/01/28 02:11:39;;;;;;;;;;;;;;;5.43;70.75;100884.59;5084097;27;4419;-77
2023/01/28 02:14:05;;;;;;;;;;;;;;;5.47;70.50;100890.41;5100071;27;4674;-77
2023/01/28 02:16:32;;;;;;;;;;;;;;;5.43;70.74;100891.78;5105122;27;4148;-77
2023/01/28 02:18:58;;;;;;;;;;;;;;;5.45;70.58;100871.91;5105171;27;4390;-77
2023/01/28 02:21:25;;;;;;;;;;;;;;;5.43;70.66;100883.78;5087914;27;4555;-77
2023/01/28 02:23:51;;;;;;;;;;;;;;;5.47;70.63;100898.41;5103926;27;4355;-77
2023/01/28 02:26:18;;;;;;;;;;;;;;;5.55;70.37;100887.69;5105840;27;5333;-77
2023/01/28 02:28:44;;;;;;;;;;;;;;;5.52;70.54;100874.69;5098109;27;4735;-77
2023/01/28 02:31:11;;;;;;;;;;;;;;;5.51;70.17;100861.50;5109131;27;5306;-77
2023/01/28 02:33:38;;;;;;;;;;;;;;;5.63;70.19;100873.44;5107554;27;4596;-77
2023/01/28 02:36:04;;;;;;;;;;;;;;;5.52;70.33;100852.47;5112808;27;4663;-77
2023/01/28 02:38:31;;;;;;;;;;;;;;;5.54;70.15;100853.97;5116338;27;4743;-77
2023/01/28 02:41:05;;;;;;;;;;;;;;;5.54;70.44;100853.97;5096061;27;5165;-77
2023/01/28 02:43:31;;;;;;;;;;;;;;;5.67;69.67;100853.34;5113294;27;5128;-77
2023/01/28 02:48:41;;;;;;;;;;;;;;;5.57;70.32;100885.66;5039964;27;4793;-77
2023/01/28 02:51:08;;;;;;;;;;;;;;;5.60;69.95;100897.84;5101370;27;4857;-77
2023/01/28 02:53:42;;;;;;;;;;;;;;;5.63;69.77;100886.81;5072617;27;4209;-77
2023/01/28 02:56:09;;;;;;;;;;;;;;;5.52;70.38;100884.53;5099777;27;4654;-77
2023/01/28 02:58:36;;;;;;;;;;;;;;;5.61;70.08;100864.75;5105293;27;4545;-77
2023/01/28 03:01:02;;;;;;;;;;;;;;;5.54;70.24;100870.00;5091510;27;4799;-77
2023/01/28 03:03:29;;;;;;;;;;;;;;;5.58;70.17;100871.28;5106574;27;4615;-77
2023/01/28 03:06:05;;;;;;;;;;;;;;;5.46;70.00;100841.50;5097308;27;4429;-77
2023/01/28 03:38:42;;;;;;;;;;;;;;;5.70;69.54;100828.94;5104144;27;4417;-77
2023/01/28 03:41:09;;;;;;;;;;;;;;;5.67;69.92;100821.28;5102032;27;4751;-77
2023/01/28 03:43:35;;;;;;;;;;;;;;;5.63;70.02;100818.16;5104285;27;4754;-77
2023/01/28 03:46:02;;;;;;;;;;;;;;;5.67;70.05;100816.75;5106622;27;4819;-77
2023/01/28 03:48:28;;;;;;;;;;;;;;;5.76;69.42;100817.50;5104622;27;4214;-77
2023/01/28 03:50:55;;;;;;;;;;;;;;;5.80;69.31;100810.81;5105110;27;4544;-77
2023/01/28 03:53:21;;;;;;;;;;;;;;;5.82;69.52;100810.63;5103655;27;4593;-77
2023/01/28 03:55:48;;;;;;;;;;;;;;;5.72;69.59;100815.41;5106263;27;4192;-77
2023/01/28 03:58:14;;;;;;;;;;;;;;;5.77;69.54;100813.03;5102121;27;4394;-77
2023/01/28 04:00:42;;;;;;;;;;;;;;;5.89;69.11;100808.88;5083120;28;5350;-77
2023/01/28 04:03:14;;;;;;;;;;;;;;;5.88;69.10;100816.09;5085112;28;4539;-77
2023/01/28 04:05:41;;;;;;;;;;;;;;;5.85;69.09;100805.75;5090614;28;4644;-77
2023/01/28 04:08:08;;;;;;;;;;;;;;;5.77;69.40;100797.00;5103474;28;4775;-77
2023/01/28 04:10:34;;;;;;;;;;;;;;;5.75;69.64;100791.00;5089769;28;4398;-77
2023/01/28 04:13:26;;;;;;;;;;;;;;;5.73;69.74;100796.50;5091233;28;4599;-77
2023/01/28 04:16:17;;;;;;;;;;;;;;;5.73;69.77;100793.00;5096629;28;4356;-77
2023/01/28 04:19:09;;;;;;;;;;;;;;;5.82;69.53;100799.94;5093017;28;4329;-77
2023/01/28 04:22:01;;;;;;;;;;;;;;;5.83;69.32;100820.31;5089441;28;4759;-77
2023/01/28 04:24:53;;;;;;;;;;;;;;;5.80;69.65;100815.34;5091838;28;5281;-77
2023/01/28 04:27:45;;;;;;;;;;;;;;;5.83;69.37;100810.44;5092992;28;4706;-77
2023/01/28 04:30:37;;;;;;;;;;;;;;;5.78;69.62;100812.84;5099744;28;4373;-77
2023/01/28 04:33:29;;;;;;;;;;;;;;;5.84;69.45;100819.28;5089613;28;4815;-77
2023/01/28 04:36:21;;;;;;;;;;;;;;;5.79;69.61;100817.16;5090173;28;4291;-77
2023/01/28 04:39:13;;;;;;;;;;;;;;;5.88;69.13;100807.22;5090824;28;4430;-77
2023/01/28 04:42:05;;;;;;;;;;;;;;;5.78;69.53;100799.47;5090438;28;4657;-77
2023/01/28 04:44:57;;;;;;;;;;;;;;;5.92;69.26;100804.00;5086745;28;4204;-77
2023/01/28 04:47:49;;;;;;;;;;;;;;;5.89;69.31;100809.72;5086779;27;4494;-77
2023/01/28 04:50:41;;;;;;;;;;;;;;;5.80;69.46;100794.78;5089594;27;4035;-77
2023/01/28 04:53:33;;;;;;;;;;;;;;;5.97;69.15;100802.66;5086680;27;4441;-77
2023/01/28 04:56:25;;;;;;;;;;;;;;;6.01;69.17;100801.28;5088833;27;4495;-77
2023/01/28 04:59:18;;;;;;;;;;;;;;;5.89;69.36;100796.34;5086018;27;4907;-76
2023/01/28 05:02:10;;;;;;;;;;;;;;;5.86;69.34;100794.03;5089475;27;5031;-77
2023/01/28 05:05:03;;;;;;;;;;;;;;;5.85;69.30;100802.22;5095301;27;4447;-77
2023/01/28 05:07:55;;;;;;;;;;;;;;;6.08;68.59;100803.03;5112760;27;4844;-77
2023/01/28 05:10:47;;;;;;;;;;;;;;;5.93;69.08;100812.88;5107378;27;4098;-77
2023/01/28 05:13:39;;;;;;;;;;;;;;;6.00;69.04;100815.66;5087998;27;4290;-77
2023/01/28 05:16:33;;;;;;;;;;;;;;;6.04;68.83;100822.31;5090559;27;4207;-77
2023/01/28 05:19:25;;;;;;;;;;;;;;;5.95;68.99;100815.38;5090080;27;4403;-77
2023/01/28 05:22:17;;;;;;;;;;;;;;;6.01;69.13;100828.84;5096466;27;4741;-77
2023/01/28 05:25:09;;;;;;;;;;;;;;;5.96;69.13;100830.41;5109265;27;4743;-77
2023/01/28 05:28:01;;;;;;;;;;;;;;;5.95;68.84;100832.25;5096078;27;4348;-77
2023/01/28 05:30:53;;;;;;;;;;;;;;;5.99;68.79;100841.56;5085104;27;4705;-77
2023/01/28 05:33:45;;;;;;;;;;;;;;;5.98;69.11;100847.09;5086137;27;4553;-77
2023/01/28 05:36:37;;;;;;;;;;;;;;;5.97;69.06;100829.38;5106092;27;4773;-77
2023/01/28 05:39:30;;;;;;;;;;;;;;;5.96;69.31;100833.06;5110438;27;4496;-77
2023/01/28 05:42:22;;;;;;;;;;;;;;;5.95;69.24;100823.41;5109239;27;4193;-77
2023/01/28 05:45:14;;;;;;;;;;;;;;;5.96;69.25;100817.03;5110487;27;4281;-77
2023/01/28 05:48:06;;;;;;;;;;;;;;;6.03;68.73;100829.50;5107653;27;4468;-77
2023/01/28 05:50:58;;;;;;;;;;;;;;;6.08;68.62;100828.94;5108174;27;5319;-77
2023/01/28 05:53:50;;;;;;;;;;;;;;;6.07;68.97;100840.66;5110189;27;4679;-77
2023/01/28 05:56:42;;;;;;;;;;;;;;;6.06;68.34;100852.34;5112488;27;4477;-77
2023/01/28 05:59:34;;;;;;;;;;;;;;;6.09;68.83;100860.03;5092097;27;4662;-77
2023/01/28 06:02:26;;;;;;;;;;;;;;;6.08;68.85;100853.81;5086149;27;4279;-77
2023/01/28 06:05:18;;;;;;;;;;;;;;;6.02;69.19;100851.88;5082654;27;4477;-77
2023/01/28 06:08:10;;;;;;;;;;;;;;;6.08;68.77;100850.31;5095386;27;4305;-77
2023/01/28 06:11:02;;;;;;;;;;;;;;;6.10;68.52;100843.78;5084943;27;4144;-77
2023/01/28 06:13:54;;;;;;;;;;;;;;;6.06;68.94;100834.47;5086866;27;4148;-77
2023/01/28 06:16:46;;;;;;;;;;;;;;;6.13;68.62;100854.13;5089424;27;4138;-77
2023/01/28 06:19:38;;;;;;;;;;;;;;;6.02;69.23;100865.25;5086702;27;4595;-77
2023/01/28 06:22:30;;;;;;;;;;;;;;;6.09;68.79;100868.06;5092464;27;4755;-77
2023/01/28 06:25:22;;;;;;;;;;;;;;;6.07;68.71;100849.50;5089566;27;4171;-76
2023/01/28 06:28:15;;;;;;;;;;;;;;;6.04;68.83;100831.16;5108721;27;4628;-77
2023/01/28 06:31:06;;;;;;;;;;;;;;;6.11;68.71;100829.38;5106428;27;5011;-77
2023/01/28 06:33:58;;;;;;;;;;;;;;;6.01;68.90;100844.88;5085169;27;4721;-77
2023/01/28 06:36:52;;;;;;;;;;;;;;;6.06;68.49;100838.97;5089612;27;4220;-77
2023/01/28 06:39:43;;;;;;;;;;;;;;;6.10;68.79;100825.06;5088499;27;4566;-77
2023/01/28 06:42:37;;;;;;;;;;;;;;;6.09;68.73;100828.75;5085168;27;4199;-77
2023/01/28 06:45:29;;;;;;;;;;;;;;;6.06;68.77;100836.31;5086827;27;4092;-77
2023/01/28 06:48:21;;;;;;;;;;;;;;;6.14;68.76;100841.56;5085366;27;4045;-77
2023/01/28 06:51:13;;;;;;;;;;;;;;;6.13;68.53;100843.41;5084561;27;4081;-77
2023/01/28 06:54:05;;;;;;;;;;;;;;;6.16;68.66;100836.06;5085107;27;4356;-77
2023/01/28 06:56:57;;;;;;;;;;;;;;;6.14;68.75;100841.56;5084167;27;4140;-77
2023/01/28 06:59:49;;;;;;;;;;;;;;;6.17;68.62;100837.69;5089672;27;4840;-77
2023/01/28 07:02:41;;;;;;;;;;;;;;;6.14;68.58;100837.03;5089994;27;4587;-76
2023/01/28 07:05:33;;;;;;;;;;;;;;;6.16;68.78;100844.06;5089317;27;4294;-77
2023/01/28 07:08:25;;;;;;;;;;;;;;;6.21;68.48;100834.50;5084662;27;4145;-77
2023/01/28 07:11:17;;;;;;;;;;;;;;;6.21;68.26;100842.50;5086101;27;4622;-77
2023/01/28 07:14:09;;;;;;;;;;;;;;;6.11;68.63;100853.47;5086444;27;4514;-77
2023/01/28 07:17:01;;;;;;;;;;;;;;;6.30;68.22;100848.59;5086442;27;4655;-77
2023/01/28 07:19:53;;;;;;;;;;;;;;;6.13;68.49;100854.13;5092872;27;4205;-77
2023/01/28 07:22:45;;;;;;;;;;;;;;;6.17;68.69;100864.44;5108137;27;4224;-77
2023/01/28 07:25:37;;;;;;;;;;;;;;;6.13;68.71;100861.31;5108333;27;4473;-76
2023/01/28 07:28:29;;;;;;;;;;;;;;;6.22;68.48;100867.41;5104914;27;4739;-77
2023/01/28 07:31:20;;;;;;;;;;;;;;;6.16;68.39;100866.28;5108411;27;4637;-77
2023/01/28 07:34:12;;;;;;;;;;;;;;;6.13;68.62;100861.31;5091204;27;4573;-77
2023/01/28 07:37:05;;;;;;;;;;;;;;;6.19;68.63;100857.91;5085368;27;4586;-77
2023/01/28 07:39:57;;;;;;;;;;;;;;;6.15;68.79;100851.28;5085595;27;4215;-77
2023/01/28 07:42:48;;;;;;;;;;;;;;;6.14;68.65;100852.25;5082612;27;4227;-77
2023/01/28 07:45:40;;;;;;;;;;;;;;;6.19;68.28;100857.09;5089632;27;4709;-77
2023/01/28 07:48:32;;;;;;;;;;;;;;;6.16;68.77;100855.59;5082947;27;5179;-77
2023/01/28 07:51:24;;;;;;;;;;;;;;;6.21;68.23;100868.44;5087395;27;4547;-77
2023/01/28 07:54:16;;;;;;;;;;;;;;;6.17;68.71;100865.28;5083730;27;4187;-77
2023/01/28 07:57:08;;;;;;;;;;;;;;;6.12;68.88;100868.50;5102067;27;4283;-77
2023/01/28 08:00:00;;;;;;;;;;;;;;;6.12;68.96;100860.50;5106820;27;4469;-77
2023/01/28 08:02:52;;;;;;;;;;;;;;;6.17;68.79;100862.59;5107052;28;4783;-77
2023/01/28 08:05:44;;;;;;;;;;;;;;;6.23;68.49;100867.22;5102574;28;4844;-76
2023/01/28 08:08:36;;;;;;;;;;;;;;;6.24;68.37;100860.03;5107147;28;4969;-76
2023/01/28 08:11:28;;;;;;;;;;;;;;;6.26;68.44;100863.34;5098745;28;4728;-77
2023/01/28 08:14:20;;;;;;;;;;;;;;;6.22;68.37;100865.56;5097537;28;4596;-77
2023/01/28 08:17:12;;;;;;;;;;;;;;;6.21;68.39;100863.09;5092762;28;4278;-77
2023/01/28 08:20:04;;;;;;;;;;;;;;;6.33;68.29;100861.63;5099645;28;4650;-76
2023/01/28 08:22:56;;;;;;;;;;;;;;;5.78;68.55;100796.78;5113150;27;5492;-77
2023/01/28 08:25:47;;;;;;;;;;;;;;;6.14;68.61;100858.44;5098002;27;4070;-77
2023/01/28 08:28:39;;;;;;;;;;;;;;;6.25;68.44;100862.53;5095869;27;4589;-77
2023/01/28 08:31:31;;;;;;;;;;;;;;;6.18;68.70;100850.06;5095419;27;4697;-77
2023/01/28 08:34:23;;;;;;;;;;;;;;;6.23;68.40;100851.16;5094108;27;4600;-77
2023/01/28 08:37:15;;;;;;;;;;;;;;;6.22;68.46;100843.34;5108293;27;4721;-77
2023/01/28 08:40:07;;;;;;;;;;;;;;;6.22;68.52;100844.16;5115887;27;4177;-77
2023/01/28 08:42:59;;;;;;;;;;;;;;;6.18;68.75;100834.84;5093534;27;4146;-77
2023/01/28 08:45:51;;;;;;;;;;;;;;;6.12;68.62;100839.09;5099676;27;4211;-77
2023/01/28 08:48:43;;;;;;;;;;;;;;;6.16;68.80;100852.09;5089405;27;4706;-77
2023/01/28 08:51:35;;;;;;;;;;;;;;;6.19;68.55;100849.06;5086801;27;4336;-77
2023/01/28 08:54:27;;;;;;;;;;;;;;;6.09;68.92;100865.38;5090946;27;4209;-77
2023/01/28 08:57:19;;;;;;;;;;;;;;;6.15;68.85;100859.28;5092452;27;4179;-77
2023/01/28 09:00:11;;;;;;;;;;;;;;;6.19;68.32;100873.13;5088828;27;5323;-77
2023/01/28 09:03:03;;;;;;;;;;;;;;;6.16;68.97;100868.97;5088690;27;4345;-76
2023/01/28 09:05:55;;;;;;;;;;;;;;;6.13;68.87;100883.53;5099121;27;4430;-76
2023/01/28 09:08:47;;;;;;;;;;;;;;;6.18;68.71;100885.69;5111998;27;4522;-76
2023/01/28 09:11:39;;;;;;;;;;;;;;;6.09;69.16;100886.78;5129710;27;2242;-76
2023/01/28 09:14:31;;;;;;;;;;;;;;;6.06;68.89;100901.34;5136010;27;2239;-76
2023/01/28 09:17:23;;;;;;;;;;;;;;;6.07;69.10;100904.84;5129543;27;2160;-76
2023/01/28 09:20:15;;;;;;;;;;;;;;;6.08;68.91;100911.84;5118597;27;4772;-76
2023/01/28 09:23:07;;;;;;;;;;;;;;;6.06;69.20;100903.16;5113156;27;4882;-76
2023/01/28 09:25:59;;;;;;;;;;;;;;;6.11;68.78;100904.28;5100023;27;4797;-76
2023/01/28 09:28:51;;;;;;;;;;;;;;;6.04;69.24;100902.53;5090662;27;4553;-76
2023/01/28 09:31:43;;;;;;;;;;;;;;;6.08;68.70;100893.94;5094116;27;4477;-76
2023/01/28 09:34:35;;;;;;;;;;;;;;;6.00;69.43;100898.53;5091223;27;4240;-76
2023/01/28 09:37:27;;;;;;;;;;;;;;;6.02;69.30;100892.00;5092225;27;4599;-76
2023/01/28 09:40:19;;;;;;;;;;;;;;;6.01;69.17;100887.66;5093714;27;4180;-76
2023/01/28 09:43:11;;;;;;;;;;;;;;;6.01;69.51;100890.34;5110816;27;4592;-76
2023/01/28 09:46:03;;;;;;;;;;;;;;;5.95;69.27;100899.09;5109414;27;4600;-77
2023/01/28 09:48:55;;;;;;;;;;;;;;;6.04;69.16;100895.31;5085505;27;4463;-76
2023/01/28 09:51:47;;;;;;;;;;;;;;;5.97;69.02;100880.19;5093400;27;4611;-77
2023/01/28 09:54:39;;;;;;;;;;;;;;;5.94;69.36;100869.84;5093330;27;4721;-77
2023/01/28 09:57:31;;;;;;;;;;;;;;;5.90;69.53;100864.84;5088204;27;4609;-77
2023/01/28 10:00:23;;;;;;;;;;;;;;;5.89;69.69;100875.72;5093399;27;4935;-77
2023/01/28 10:03:15;;;;;;;;;;;;;;;5.91;69.48;100881.69;5090759;27;4596;-77
2023/01/28 10:06:07;;;;;;;;;;;;;;;5.83;69.67;100874.59;5093015;27;4129;-76
2023/01/28 10:08:59;;;;;;;;;;;;;;;5.81;69.81;100876.63;5092584;27;4283;-77
2023/01/28 10:11:47;;;;;;;;;;;;;;;5.99;69.12;100868.28;5092552;27;4872;-77
2023/01/28 10:14:34;;;;;;;;;;;;;;;5.92;68.99;100857.47;5087630;27;4750;-77
2023/01/28 10:17:00;;;;;;;;;;;;;;;5.49;69.27;100780.72;5091762;27;4905;-76
2023/01/28 10:19:27;;;;;;;;;;;;;;;5.97;69.33;100856.13;5090797;27;4532;-77
2023/01/28 10:21:53;;;;;;;;;;;;;;;5.98;69.32;100873.84;5087794;27;4739;-77
2023/01/28 10:24:20;;;;;;;;;;;;;;;5.99;68.97;100864.78;5090737;27;4656;-77
2023/01/28 10:26:47;;;;;;;;;;;;;;;5.96;69.17;100860.63;5093254;27;4784;-77
2023/01/28 10:29:13;;;;;;;;;;;;;;;5.94;69.22;100853.81;5096198;27;4242;-77
2023/01/28 10:31:40;;;;;;;;;;;;;;;5.94;69.40;100859.16;5095865;27;4737;-77
2023/01/28 10:34:06;;;;;;;;;;;;;;;5.95;69.45;100867.00;5091820;27;4790;-77
2023/01/28 10:36:33;;;;;;;;;;;;;;;5.82;69.22;100851.53;5093137;27;4758;-77
2023/01/28 10:38:59;;;;;;;;;;;;;;;5.97;69.23;100875.69;5091580;27;4995;-77
2023/01/28 10:41:26;;;;;;;;;;;;;;;5.90;69.48;100872.03;5088777;27;4302;-77
2023/01/28 10:43:53;;;;;;;;;;;;;;;5.88;69.56;100872.22;5092693;27;4502;-77
2023/01/28 10:46:19;;;;;;;;;;;;;;;5.96;69.06;100865.97;5090283;27;4904;-77
2023/01/28 10:48:46;;;;;;;;;;;;;;;5.94;69.28;100865.31;5072749;27;4338;-77
2023/01/28 10:51:14;;;;;;;;;;;;;;;5.99;69.27;100865.63;5105703;27;4932;-77
2023/01/28 10:53:40;;;;;;;;;;;;;;;5.95;69.45;100858.16;5105447;27;4577;-77
2023/01/28 10:56:07;;;;;;;;;;;;;;;5.88;69.49;100842.81;5116690;27;5175;-77
2023/01/28 10:58:34;;;;;;;;;;;;;;;5.88;69.65;100852.66;5118536;27;4533;-78
2023/01/28 11:01:00;;;;;;;;;;;;;;;5.87;69.80;100853.69;5115225;27;4485;-78
2023/01/28 11:03:27;;;;;;;;;;;;;;;5.97;69.28;100842.75;5117754;27;4591;-78
2023/01/28 11:06:01;;;;;;;;;;;;;;;5.89;69.54;100841.78;5063238;27;4552;-77
2023/01/28 11:08:27;;;;;;;;;;;;;;;5.85;69.54;100835.16;5058365;28;4703;-77
2023/01/28 11:10:54;;;;;;;;;;;;;;;5.87;69.59;100833.13;5058163;28;4541;-78
2023/01/28 11:13:21;;;;;;;;;;;;;;;5.88;69.67;100818.75;5058227;28;4984;-78
2023/01/28 11:15:47;;;;;;;;;;;;;;;5.84;69.77;100816.63;5058954;28;4946;-78
2023/01/28 11:18:14;;;;;;;;;;;;;;;5.95;69.48;100810.03;5058409;28;4564;-78
2023/01/28 11:20:40;;;;;;;;;;;;;;;5.88;69.46;100813.41;5057984;28;5121;-77
2023/01/28 11:23:07;;;;;;;;;;;;;;;5.91;69.43;100815.72;5057773;28;4819;-78
2023/01/28 11:25:33;;;;;;;;;;;;;;;5.88;69.87;100817.91;5057108;28;4434;-78
2023/01/28 11:28:00;;;;;;;;;;;;;;;5.90;69.65;100814.03;5057440;28;4736;-78
2023/01/28 11:30:26;;;;;;;;;;;;;;;5.81;69.74;100808.97;5059237;28;4934;-78
2023/01/28 11:32:53;;;;;;;;;;;;;;;5.70;70.14;100804.88;5071736;28;5290;-77
2023/01/28 11:35:19;;;;;;;;;;;;;;;5.77;70.26;100810.34;5058059;28;4541;-78
2023/01/28 11:37:46;;;;;;;;;;;;;;;5.71;70.47;100795.88;5053826;28;5148;-77
2023/01/28 11:40:12;;;;;;;;;;;;;;;5.72;70.62;100789.50;5090294;28;4994;-78
2023/01/28 11:42:39;;;;;;;;;;;;;;;5.66;70.49;100784.88;5057302;28;4605;-78
2023/01/28 11:45:06;;;;;;;;;;;;;;;5.67;70.83;100778.53;5056307;28;4564;-78
2023/01/28 11:47:32;;;;;;;;;;;;;;;5.64;70.61;100774.38;5056101;28;4760;-78
2023/01/28 11:49:59;;;;;;;;;;;;;;;5.61;70.87;100772.06;5056774;28;4502;-78
2023/01/28 11:52:25;;;;;;;;;;;;;;;5.63;70.67;100769.22;5056670;28;5289;-78
2023/01/28 11:54:52;;;;;;;;;;;;;;;5.63;70.87;100769.22;5070507;28;4623;-78
2023/01/28 11:57:18;;;;;;;;;;;;;;;5.70;70.59;100757.59;5058742;28;4906;-78
2023/01/28 11:59:45;;;;;;;;;;;;;;;5.61;71.04;100757.88;5055098;28;4427;-78
2023/01/28 12:02:12;;;;;;;;;;;;;;;5.58;71.15;100747.56;5056446;28;4552;-78
2023/01/28 12:04:38;;;;;;;;;;;;;;;5.57;71.31;100751.25;5055932;28;4673;-78
2023/01/28 12:07:05;;;;;;;;;;;;;;;5.56;71.22;100742.41;5055281;28;4544;-78
2023/01/28 12:09:31;;;;;;;;;;;;;;;5.51;71.46;100757.31;5037108;28;4352;-78
2023/01/28 12:12:13;;;;;;;;;;;;;;;5.50;71.72;100748.47;5053821;28;5060;-78
2023/01/28 12:14:40;;;;;;;;;;;;;;;5.61;71.21;100750.69;5056489;28;4478;-78
2023/01/28 12:17:07;;;;;;;;;;;;;;;5.56;71.54;100758.44;5037111;28;4668;-77
2023/01/28 12:19:33;;;;;;;;;;;;;;;5.55;71.47;100745.25;5036771;28;4876;-78
2023/01/28 12:22:00;;;;;;;;;;;;;;;5.58;71.46;100760.91;5024823;28;4902;-78
2023/01/28 12:24:26;;;;;;;;;;;;;;;5.58;71.38;100760.91;5038755;28;4490;-78
2023/01/28 12:26:54;;;;;;;;;;;;;;;5.66;71.34;100744.81;5043698;28;4463;-78
2023/01/28 12:29:21;;;;;;;;;;;;;;;5.61;71.46;100747.19;5043471;28;4549;-78
2023/01/28 12:31:48;;;;;;;;;;;;;;;5.63;71.24;100745.16;5043441;28;4649;-78
2023/01/28 12:34:14;;;;;;;;;;;;;;;5.64;71.26;100746.81;5043258;28;4422;-76
2023/01/28 12:36:41;;;;;;;;;;;;;;;5.66;71.32;100747.47;5043487;28;4494;-76
2023/01/28 12:39:07;;;;;;;;;;;;;;;5.64;71.46;100744.97;5042113;28;4545;-78
2023/01/28 12:41:34;;;;;;;;;;;;;;;5.61;71.49;100739.16;5042947;28;4551;-78
2023/01/28 12:44:01;;;;;;;;;;;;;;;5.64;71.47;100744.16;5043286;28;4732;-78
2023/01/28 12:46:27;;;;;;;;;;;;;;;5.67;71.42;100752.63;5041144;28;4581;-78
2023/01/28 12:48:54;;;;;;;;;;;;;;;5.65;71.46;100743.97;5031761;28;4879;-78
2023/01/28 12:51:20;;;;;;;;;;;;;;;5.64;71.42;100739.63;5022789;28;4430;-78
2023/01/28 12:53:47;;;;;;;;;;;;;;;5.68;71.53;100730.25;5034155;28;4339;-78
2023/01/28 12:56:14;;;;;;;;;;;;;;;5.67;71.53;100725.06;5040599;28;4590;-78
2023/01/28 12:58:41;;;;;;;;;;;;;;;5.68;71.68;100727.56;5046167;28;4896;-76
2023/01/28 13:01:07;;;;;;;;;;;;;;;5.75;71.24;100735.69;5042262;28;4391;-78
2023/01/28 13:03:34;;;;;;;;;;;;;;;5.64;71.79;100720.91;5043382;28;4840;-76
2023/01/28 13:06:00;;;;;;;;;;;;;;;5.70;71.65;100719.38;5042576;28;4561;-78
2023/01/28 13:08:27;;;;;;;;;;;;;;;5.74;71.42;100709.97;5038987;28;4370;-78
2023/01/28 13:10:53;;;;;;;;;;;;;;;5.76;71.47;100701.75;5041055;28;4357;-78
2023/01/28 13:13:20;;;;;;;;;;;;;;;5.70;71.48;100703.34;5038633;28;4236;-78
2023/01/28 13:15:46;;;;;;;;;;;;;;;5.70;71.60;100695.31;5043172;28;4572;-78
2023/01/28 13:18:13;;;;;;;;;;;;;;;5.69;71.58;100688.31;5042873;28;4922;-78
2023/01/28 13:20:40;;;;;;;;;;;;;;;5.73;71.51;100691.44;5042114;28;4787;-78
2023/01/28 13:23:06;;;;;;;;;;;;;;;5.69;71.94;100693.66;5039743;28;4887;-78
2023/01/28 13:25:33;;;;;;;;;;;;;;;5.72;71.95;100706.66;5041764;28;4354;-79
2023/01/28 13:27:59;;;;;;;;;;;;;;;5.76;71.33;100705.25;5041071;28;4553;-78
2023/01/28 13:30:26;;;;;;;;;;;;;;;5.79;71.40;100704.06;5043249;28;4941;-78
2023/01/28 13:32:52;;;;;;;;;;;;;;;5.76;71.88;100712.47;5038231;28;4359;-78
2023/01/28 13:35:19;;;;;;;;;;;;;;;5.73;71.66;100700.28;5043325;28;4559;-78
2023/01/28 13:37:45;;;;;;;;;;;;;;;5.75;71.44;100700.94;5040461;28;4545;-78
2023/01/28 13:40:12;;;;;;;;;;;;;;;5.70;71.65;100703.34;5055760;28;4427;-79
2023/01/28 13:42:39;;;;;;;;;;;;;;;5.67;71.80;100707.19;5040708;28;4571;-78
2023/01/28 13:45:05;;;;;;;;;;;;;;;5.75;71.57;100703.63;5043310;28;4593;-78
2023/01/28 13:47:32;;;;;;;;;;;;;;;5.71;71.77;100702.34;5039061;28;4382;-78
2023/01/28 13:49:58;;;;;;;;;;;;;;;5.68;72.04;100687.50;5058223;28;4795;-78
2023/01/28 13:52:25;;;;;;;;;;;;;;;5.66;72.29;100686.84;5040197;28;4405;-78
2023/01/28 13:54:51;;;;;;;;;;;;;;;5.69;72.24;100681.13;5041588;28;4715;-78
2023/01/28 13:57:18;;;;;;;;;;;;;;;5.68;72.04;100676.81;5036657;28;4419;-78
2023/01/28 13:59:44;;;;;;;;;;;;;;;5.72;72.26;100681.78;5026195;28;4428;-78
2023/01/28 14:02:11;;;;;;;;;;;;;;;5.72;72.31;100677.25;5029533;28;4318;-78
2023/01/28 14:04:38;;;;;;;;;;;;;;;5.75;71.94;100676.88;5040415;28;4483;-78
2023/01/28 14:07:04;;;;;;;;;;;;;;;5.70;72.32;100669.41;5042328;28;4501;-78
2023/01/28 14:09:31;;;;;;;;;;;;;;;5.78;71.89;100670.34;5040044;28;4885;-78
2023/01/28 14:11:57;;;;;;;;;;;;;;;5.77;72.04;100663.34;5041801;28;4649;-76
2023/01/28 14:14:24;;;;;;;;;;;;;;;5.77;71.96;100655.34;5039005;28;4487;-78
2023/01/28 14:16:51;;;;;;;;;;;;;;;5.77;72.06;100655.34;5024181;28;4374;-78
2023/01/28 14:19:17;;;;;;;;;;;;;;;5.78;72.19;100655.13;5029160;28;4887;-78
2023/01/28 14:21:44;;;;;;;;;;;;;;;5.80;72.11;100641.59;5025843;28;4391;-76